Time,TemperatureF,DewpointF,PressureIn,WindDirection,WindDirectionDegrees,WindSpeedMPH,WindSpeedGustMPH,Humidity,HourlyPrecipIn,Conditions,Clouds,dailyrainin,SoftwareType,DateUTC
2013-01-18 00:07:00,42.8,33.3,30.03,West,270,2.2,-999.0,69,-99.99,,,0.00,Acu-Link.com,2013-01-18 05:07:00,
2013-01-18 00:23:00,42.4,33.0,30.03,NW,315,1.6,-999.0,69,-99.99,,,0.00,Acu-Link.com,2013-01-18 05:23:00,
2013-01-18 00:38:00,42.1,32.7,30.03,NW,315,3.1,-999.0,69,-99.99,,,0.00,Acu-Link.com,2013-01-18 05:38:00,
2013-01-18 00:53:00,41.7,32.3,30.04,NNW,337,2.7,-999.0,69,-99.99,,,0.00,Acu-Link.com,2013-01-18 05:53:00,
2013-01-18 01:08:00,41.5,32.5,30.04,East,90,1.6,-999.0,70,-99.99,,,0.00,Acu-Link.com,2013-01-18 06:08:00,
2013-01-18 01:24:00,41.2,32.5,30.04,WNW,292,2.2,-999.0,71,-99.99,,,0.00,Acu-Link.com,2013-01-18 06:24:00,
2013-01-18 01:39:00,41.0,32.7,30.05,West,270,2.2,-999.0,72,-99.99,,,0.00,Acu-Link.com,2013-01-18 06:39:00,
2013-01-18 01:54:00,40.8,32.8,30.05,NNW,337,1.1,-999.0,73,-99.99,,,0.00,Acu-Link.com,2013-01-18 06:54:00,
2013-01-18 02:10:00,41.2,33.9,30.05,NE,45,1.6,-999.0,75,-99.99,,,0.00,Acu-Link.com,2013-01-18 07:10:00,
2013-01-18 02:25:00,41.4,33.4,30.05,SSW,202,2.7,-999.0,73,-99.99,,,0.00,Acu-Link.com,2013-01-18 07:25:00,
2013-01-18 02:40:00,41.5,33.5,30.04,North,0,2.7,-999.0,73,-99.99,,,0.00,Acu-Link.com,2013-01-18 07:40:00,
2013-01-18 02:56:00,41.7,33.7,30.04,WSW,247,3.8,-999.0,73,-99.99,,,0.00,Acu-Link.com,2013-01-18 07:56:00,
2013-01-18 03:11:00,41.9,34.2,30.04,North,0,1.6,-999.0,74,-99.99,,,0.00,Acu-Link.com,2013-01-18 08:11:00,
2013-01-18 03:26:00,41.9,34.6,30.04,NNW,337,2.2,-999.0,75,-99.99,,,0.00,Acu-Link.com,2013-01-18 08:26:00,
2013-01-18 03:41:00,41.7,34.7,30.04,NNW,337,0.0,-999.0,76,-99.99,,,0.00,Acu-Link.com,2013-01-18 08:41:00,
2013-01-18 03:57:00,41.4,34.7,30.03,NNW,337,1.6,-999.0,77,-99.99,,,0.00,Acu-Link.com,2013-01-18 08:57:00,
2013-01-18 04:12:00,41.4,35.0,30.04,NE,45,1.1,-999.0,78,-99.99,,,0.00,Acu-Link.com,2013-01-18 09:12:00,
2013-01-18 04:27:00,41.5,35.5,30.03,WSW,247,0.0,-999.0,79,-99.99,,,0.00,Acu-Link.com,2013-01-18 09:27:00,
2013-01-18 04:42:00,41.9,35.6,30.03,WNW,292,0.0,-999.0,78,-99.99,,,0.00,Acu-Link.com,2013-01-18 09:42:00,
2013-01-18 04:58:00,41.9,35.2,30.03,WNW,292,1.1,-999.0,77,-99.99,,,0.00,Acu-Link.com,2013-01-18 09:58:00,
2013-01-18 05:13:00,42.4,36.1,30.05,WSW,247,2.2,-999.0,78,-99.99,,,0.00,Acu-Link.com,2013-01-18 10:13:00,
2013-01-18 05:28:00,42.8,36.1,30.05,West,270,2.2,-999.0,77,-99.99,,,0.00,Acu-Link.com,2013-01-18 10:28:00,
2013-01-18 05:44:00,43.0,36.3,30.05,West,270,2.2,-999.0,77,-99.99,,,0.00,Acu-Link.com,2013-01-18 10:44:00,
2013-01-18 05:59:00,43.3,36.9,30.06,West,270,1.6,-999.0,78,-99.99,,,0.00,Acu-Link.com,2013-01-18 10:59:00,
2013-01-18 06:14:00,43.7,37.0,30.07,SSE,157,0.0,-999.0,77,-99.99,,,0.00,Acu-Link.com,2013-01-18 11:14:00,
2013-01-18 06:29:00,43.9,37.5,30.07,South,180,0.0,-999.0,78,-99.99,,,0.00,Acu-Link.com,2013-01-18 11:29:00,
2013-01-18 06:45:00,44.2,37.5,30.07,NNE,22,1.1,-999.0,77,-99.99,,,0.00,Acu-Link.com,2013-01-18 11:45:00,
2013-01-18 07:00:00,44.4,38.0,30.07,SW,225,2.2,-999.0,78,-99.99,,,0.00,Acu-Link.com,2013-01-18 12:00:00,
2013-01-18 07:15:00,44.6,38.2,30.08,SSW,202,1.6,-999.0,78,-99.99,,,0.00,Acu-Link.com,2013-01-18 12:15:00,
2013-01-18 07:31:00,44.8,38.3,30.08,SSE,157,0.0,-999.0,78,-99.99,,,0.00,Acu-Link.com,2013-01-18 12:31:00,
2013-01-18 07:46:00,45.0,38.8,30.09,North,0,2.2,-999.0,79,-99.99,,,0.00,Acu-Link.com,2013-01-18 12:46:00,
2013-01-18 08:01:00,45.1,39.3,30.10,ENE,67,0.0,-999.0,80,-99.99,,,0.00,Acu-Link.com,2013-01-18 13:01:00,
2013-01-18 08:16:00,45.5,39.4,30.10,North,0,1.6,-999.0,79,-99.99,,,0.00,Acu-Link.com,2013-01-18 13:16:00,
2013-01-18 08:32:00,46.0,40.2,30.10,SSE,157,0.0,-999.0,80,-99.99,,,0.00,Acu-Link.com,2013-01-18 13:32:00,
2013-01-18 08:47:00,46.6,40.4,30.10,NNE,22,1.6,-999.0,79,-99.99,,,0.00,Acu-Link.com,2013-01-18 13:47:00,
2013-01-18 09:02:00,47.1,40.3,30.11,NNE,22,0.0,-999.0,77,-99.99,,,0.00,Acu-Link.com,2013-01-18 14:02:00,
2013-01-18 09:17:00,48.0,41.2,30.11,West,270,0.0,-999.0,77,-99.99,,,0.00,Acu-Link.com,2013-01-18 14:17:00,
2013-01-18 09:33:00,49.1,41.5,30.12,SE,135,3.1,-999.0,75,-99.99,,,0.00,Acu-Link.com,2013-01-18 14:33:00,
2013-01-18 09:48:00,50.0,41.7,30.11,South,180,1.6,-999.0,73,-99.99,,,0.00,Acu-Link.com,2013-01-18 14:48:00,
2013-01-18 10:03:00,50.9,42.6,30.13,ESE,112,1.6,-999.0,73,-99.99,,,0.00,Acu-Link.com,2013-01-18 15:03:00,
2013-01-18 10:18:00,52.2,43.0,30.13,NE,45,2.7,-999.0,71,-99.99,,,0.00,Acu-Link.com,2013-01-18 15:18:00,
2013-01-18 10:33:00,53.6,43.3,30.12,ESE,112,2.2,-999.0,68,-99.99,,,0.00,Acu-Link.com,2013-01-18 15:33:00,
2013-01-18 10:49:00,54.1,43.4,30.12,NNE,22,5.8,-999.0,67,-99.99,,,0.00,Acu-Link.com,2013-01-18 15:49:00,
2013-01-18 11:04:00,54.3,43.6,30.13,South,180,2.2,-999.0,67,-99.99,,,0.00,Acu-Link.com,2013-01-18 16:04:00,
2013-01-18 11:19:00,55.0,43.9,30.12,East,90,7.4,-999.0,66,-99.99,,,0.00,Acu-Link.com,2013-01-18 16:19:00,
2013-01-18 11:35:00,55.0,43.5,30.12,East,90,3.1,-999.0,65,-99.99,,,0.00,Acu-Link.com,2013-01-18 16:35:00,
2013-01-18 11:50:00,56.5,43.6,30.11,WNW,292,4.3,-999.0,62,-99.99,,,0.00,Acu-Link.com,2013-01-18 16:50:00,
2013-01-18 12:05:00,56.3,43.4,30.10,South,180,4.3,-999.0,62,-99.99,,,0.00,Acu-Link.com,2013-01-18 17:05:00,
2013-01-18 12:21:00,57.0,43.7,30.09,ESE,112,3.8,-999.0,61,-99.99,,,0.00,Acu-Link.com,2013-01-18 17:21:00,
2013-01-18 12:36:00,59.5,44.7,30.09,East,90,4.3,-999.0,58,-99.99,,,0.00,Acu-Link.com,2013-01-18 17:36:00,
2013-01-18 12:51:00,59.0,44.2,30.08,North,0,2.7,-999.0,58,-99.99,,,0.00,Acu-Link.com,2013-01-18 17:51:00,
2013-01-18 13:06:00,59.0,43.8,30.08,ENE,67,5.8,-999.0,57,-99.99,,,0.00,Acu-Link.com,2013-01-18 18:06:00,
2013-01-18 13:21:00,58.5,44.2,30.08,ESE,112,6.3,-999.0,59,-99.99,,,0.00,Acu-Link.com,2013-01-18 18:21:00,
2013-01-18 13:36:00,59.5,44.7,30.08,West,270,2.2,-999.0,58,-99.99,,,0.00,Acu-Link.com,2013-01-18 18:36:00,
2013-01-18 13:51:00,58.5,44.2,30.08,ENE,67,5.1,-999.0,59,-99.99,,,0.00,Acu-Link.com,2013-01-18 18:51:00,
2013-01-18 14:06:00,58.3,44.0,30.07,East,90,3.8,-999.0,59,-99.99,,,0.00,Acu-Link.com,2013-01-18 19:06:00,
2013-01-18 14:21:00,58.1,43.8,30.07,NE,45,3.1,-999.0,59,-99.99,,,0.00,Acu-Link.com,2013-01-18 19:21:00,
2013-01-18 14:36:00,57.0,43.3,30.07,SE,135,2.7,-999.0,60,-99.99,,,0.00,Acu-Link.com,2013-01-18 19:36:00,
2013-01-18 15:07:00,57.4,43.2,30.07,ESE,112,4.3,-999.0,59,-99.99,,,0.00,Acu-Link.com,2013-01-18 20:07:00,
2013-01-18 15:22:00,57.4,43.2,30.07,NE,45,2.2,-999.0,59,-99.99,,,0.00,Acu-Link.com,2013-01-18 20:22:00,
2013-01-18 15:37:00,57.2,43.0,30.07,ESE,112,3.1,-999.0,59,-99.99,,,0.00,Acu-Link.com,2013-01-18 20:37:00,
2013-01-18 15:52:00,56.8,43.1,30.08,NW,315,4.3,-999.0,60,-99.99,,,0.00,Acu-Link.com,2013-01-18 20:52:00,
2013-01-18 16:07:00,55.9,42.7,30.07,ESE,112,2.7,-999.0,61,-99.99,,,0.00,Acu-Link.com,2013-01-18 21:07:00,
2013-01-18 16:23:00,56.7,42.5,30.07,NE,45,2.7,-999.0,59,-99.99,,,0.00,Acu-Link.com,2013-01-18 21:23:00,
2013-01-18 16:38:00,55.4,41.3,30.09,East,90,4.7,-999.0,59,-99.99,,,0.00,Acu-Link.com,2013-01-18 21:38:00,
2013-01-18 16:53:00,54.9,41.2,30.08,WSW,247,3.1,-999.0,60,-99.99,,,0.00,Acu-Link.com,2013-01-18 21:53:00,
2013-01-18 17:08:00,54.3,40.7,30.08,West,270,2.7,-999.0,60,-99.99,,,0.00,Acu-Link.com,2013-01-18 22:08:00,
2013-01-18 17:23:00,54.0,40.8,30.08,ENE,67,3.8,-999.0,61,-99.99,,,0.00,Acu-Link.com,2013-01-18 22:23:00,
2013-01-18 17:38:00,53.6,40.9,30.08,South,180,4.3,-999.0,62,-99.99,,,0.00,Acu-Link.com,2013-01-18 22:38:00,
2013-01-18 17:53:00,53.1,40.4,30.08,ESE,112,1.6,-999.0,62,-99.99,,,0.00,Acu-Link.com,2013-01-18 22:53:00,
2013-01-18 18:08:00,52.5,40.3,30.08,ENE,67,1.1,-999.0,63,-99.99,,,0.00,Acu-Link.com,2013-01-18 23:08:00,
2013-01-18 18:24:00,52.2,40.4,30.08,NNW,337,3.8,-999.0,64,-99.99,,,0.00,Acu-Link.com,2013-01-18 23:24:00,
2013-01-18 18:39:00,52.0,40.6,30.09,NE,45,2.7,-999.0,65,-99.99,,,0.00,Acu-Link.com,2013-01-18 23:39:00,
2013-01-18 18:54:00,51.6,40.6,30.09,East,90,1.1,-999.0,66,-99.99,,,0.00,Acu-Link.com,2013-01-18 23:54:00,
2013-01-18 19:09:00,51.4,40.9,30.09,ENE,67,2.2,-999.0,67,-99.99,,,0.00,Acu-Link.com,2013-01-19 00:09:00,
2013-01-18 19:24:00,51.1,40.9,30.08,WNW,292,1.6,-999.0,68,-99.99,,,0.00,Acu-Link.com,2013-01-19 00:24:00,
2013-01-18 19:39:00,50.7,40.9,30.08,West,270,0.0,-999.0,69,-99.99,,,0.00,Acu-Link.com,2013-01-19 00:39:00,
2013-01-18 19:55:00,50.4,41.0,30.08,NNW,337,0.0,-999.0,70,-99.99,,,0.00,Acu-Link.com,2013-01-19 00:55:00,
2013-01-18 20:10:00,50.0,41.0,30.07,West,270,0.0,-999.0,71,-99.99,,,0.00,Acu-Link.com,2013-01-19 01:10:00,
2013-01-18 20:25:00,49.8,40.8,30.08,NW,315,0.0,-999.0,71,-99.99,,,0.00,Acu-Link.com,2013-01-19 01:25:00,
2013-01-18 20:41:00,49.5,41.2,30.07,West,270,0.0,-999.0,73,-99.99,,,0.00,Acu-Link.com,2013-01-19 01:41:00,
2013-01-18 20:56:00,49.3,41.0,30.07,NE,45,0.0,-999.0,73,-99.99,,,0.00,Acu-Link.com,2013-01-19 01:56:00,
2013-01-18 21:11:00,49.1,40.8,30.06,NW,315,0.0,-999.0,73,-99.99,,,0.00,Acu-Link.com,2013-01-19 02:11:00,
2013-01-18 21:41:00,48.9,41.0,30.06,WNW,292,0.0,-999.0,74,-99.99,,,0.00,Acu-Link.com,2013-01-19 02:41:00,
2013-01-18 21:57:00,48.7,40.8,30.06,WNW,292,1.1,-999.0,74,-99.99,,,0.00,Acu-Link.com,2013-01-19 02:57:00,
2013-01-18 22:12:00,48.4,40.1,30.05,NNW,337,2.2,-999.0,73,-99.99,,,0.00,Acu-Link.com,2013-01-19 03:12:00,
2013-01-18 22:27:00,48.4,40.1,30.04,North,0,0.0,-999.0,73,-99.99,,,0.00,Acu-Link.com,2013-01-19 03:27:00,
2013-01-18 22:43:00,48.2,40.3,30.04,ESE,112,1.6,-999.0,74,-99.99,,,0.00,Acu-Link.com,2013-01-19 03:43:00,
2013-01-18 22:58:00,47.7,40.1,30.03,North,0,1.1,-999.0,75,-99.99,,,0.00,Acu-Link.com,2013-01-19 03:58:00,
2013-01-18 23:13:00,47.5,40.0,30.03,WSW,247,1.1,-999.0,75,-99.99,,,0.00,Acu-Link.com,2013-01-19 04:13:00,
2013-01-18 23:29:00,47.3,40.1,30.03,ENE,67,0.0,-999.0,76,-99.99,,,0.00,Acu-Link.com,2013-01-19 04:29:00,
2013-01-18 23:44:00,47.1,40.3,30.02,West,270,0.0,-999.0,77,-99.99,,,0.00,Acu-Link.com,2013-01-19 04:44:00,
2013-01-18 23:59:00,46.9,40.1,30.02,WSW,247,0.0,-999.0,77,-99.99,,,0.00,Acu-Link.com,2013-01-19 04:59:00,